sensor_id;sensor_type;location;lat;lon;timestamp;pressure;altitude;pressure_sealevel;temperature;humidity
64460;BME280;50828;53.756;21.140;2023-10-13T00:00:48;99680.16;;;8.78;67.24
64460;BME280;50828;53.756;21.140;2023-10-13T00:06:03;99671.71;;;8.78;67.08
64460;BME280;50828;53.756;21.140;2023-10-13T00:11:15;99669.52;;;8.77;67.03
64460;BME280;50828;53.756;21.140;2023-10-13T00:16:24;99680.05;;;8.76;66.94
64460;BME280;50828;53.756;21.140;2023-10-13T00:21:33;99685.14;;;8.76;67.07
64460;BME280;50828;53.756;21.140;2023-10-13T00:26:42;99684.02;;;8.73;67.16
64460;BME280;50828;53.756;21.140;2023-10-13T00:31:50;99688.73;;;8.70;67.41
64460;BME280;50828;53.756;21.140;2023-10-13T00:36:58;99686.23;;;8.66;67.31
64460;BME280;50828;53.756;21.140;2023-10-13T00:42:24;99677.00;;;8.64;67.50
64460;BME280;50828;53.756;21.140;2023-10-13T00:47:39;99687.01;;;8.60;67.34
64460;BME280;50828;53.756;21.140;2023-10-13T00:52:54;99693.52;;;8.54;67.20
64460;BME280;50828;53.756;21.140;2023-10-13T00:58:02;99703.73;;;8.49;67.43
64460;BME280;50828;53.756;21.140;2023-10-13T01:03:10;99705.11;;;8.45;67.49
64460;BME280;50828;53.756;21.140;2023-10-13T01:08:18;99709.95;;;8.42;67.43
64460;BME280;50828;53.756;21.140;2023-10-13T01:13:26;99704.60;;;8.39;67.45
64460;BME280;50828;53.756;21.140;2023-10-13T01:18:37;99705.32;;;8.34;67.68
64460;BME280;50828;53.756;21.140;2023-10-13T01:23:55;99714.58;;;8.31;67.57
64460;BME280;50828;53.756;21.140;2023-10-13T01:29:03;99710.74;;;8.20;67.76
64460;BME280;50828;53.756;21.140;2023-10-13T01:34:18;99728.11;;;8.25;68.01
64460;BME280;50828;53.756;21.140;2023-10-13T01:39:28;99729.06;;;8.23;68.04
64460;BME280;50828;53.756;21.140;2023-10-13T01:44:36;99726.27;;;8.22;68.12
64460;BME280;50828;53.756;21.140;2023-10-13T01:49:44;99726.66;;;8.21;68.30
64460;BME280;50828;53.756;21.140;2023-10-13T01:54:56;99726.73;;;8.19;68.28
64460;BME280;50828;53.756;21.140;2023-10-13T02:00:09;99731.48;;;8.19;68.61
64460;BME280;50828;53.756;21.140;2023-10-13T02:05:25;99732.15;;;8.20;68.38
64460;BME280;50828;53.756;21.140;2023-10-13T02:10:39;99734.47;;;8.19;68.68
64460;BME280;50828;53.756;21.140;2023-10-13T02:15:52;99734.52;;;8.18;68.46
64460;BME280;50828;53.756;21.140;2023-10-13T02:21:04;99741.73;;;8.17;68.66
64460;BME280;50828;53.756;21.140;2023-10-13T02:26:18;99755.14;;;8.15;68.87
64460;BME280;50828;53.756;21.140;2023-10-13T02:31:40;99760.96;;;8.09;68.86
64460;BME280;50828;53.756;21.140;2023-10-13T02:36:48;99763.17;;;8.06;68.60
64460;BME280;50828;53.756;21.140;2023-10-13T02:41:57;99761.48;;;8.04;68.84
64460;BME280;50828;53.756;21.140;2023-10-13T02:47:04;99758.45;;;8.01;68.85
64460;BME280;50828;53.756;21.140;2023-10-13T02:52:20;99752.08;;;7.98;68.65
64460;BME280;50828;53.756;21.140;2023-10-13T03:02:40;99768.41;;;7.92;68.91
64460;BME280;50828;53.756;21.140;2023-10-13T03:07:52;99765.51;;;7.89;68.66
64460;BME280;50828;53.756;21.140;2023-10-13T03:13:01;99767.98;;;7.89;68.74
64460;BME280;50828;53.756;21.140;2023-10-13T03:18:09;99767.28;;;7.89;68.67
64460;BME280;50828;53.756;21.140;2023-10-13T03:23:24;99776.40;;;7.89;69.08
64460;BME280;50828;53.756;21.140;2023-10-13T03:28:32;99787.68;;;7.87;69.13
64460;BME280;50828;53.756;21.140;2023-10-13T03:33:46;99786.67;;;7.86;68.85
64460;BME280;50828;53.756;21.140;2023-10-13T03:38:54;99787.04;;;7.85;69.24
64460;BME280;50828;53.756;21.140;2023-10-13T03:44:02;99795.21;;;7.87;69.11
64460;BME280;50828;53.756;21.140;2023-10-13T03:49:19;99803.40;;;7.89;69.23
64460;BME280;50828;53.756;21.140;2023-10-13T03:54:27;99803.88;;;7.90;68.91
64460;BME280;50828;53.756;21.140;2023-10-13T03:59:37;99799.77;;;7.87;68.99
64460;BME280;50828;53.756;21.140;2023-10-13T04:04:45;99810.89;;;7.90;69.12
64460;BME280;50828;53.756;21.140;2023-10-13T04:09:59;99803.58;;;7.89;68.99
64460;BME280;50828;53.756;21.140;2023-10-13T04:15:27;99800.65;;;7.87;68.91
64460;BME280;50828;53.756;21.140;2023-10-13T04:20:52;99806.33;;;7.85;69.06
64460;BME280;50828;53.756;21.140;2023-10-13T04:26:14;99820.52;;;7.86;68.86
64460;BME280;50828;53.756;21.140;2023-10-13T04:31:29;99814.73;;;7.85;69.05
64460;BME280;50828;53.756;21.140;2023-10-13T04:37:03;99812.94;;;7.82;68.97
64460;BME280;50828;53.756;21.140;2023-10-13T04:42:29;99818.77;;;7.80;68.97
64460;BME280;50828;53.756;21.140;2023-10-13T04:47:59;99822.17;;;7.78;68.64
64460;BME280;50828;53.756;21.140;2023-10-13T04:53:23;99819.52;;;7.73;68.83
64460;BME280;50828;53.756;21.140;2023-10-13T04:58:39;99820.91;;;7.68;68.91
64460;BME280;50828;53.756;21.140;2023-10-13T05:04:13;99816.27;;;7.66;69.18
64460;BME280;50828;53.756;21.140;2023-10-13T05:09:44;99818.42;;;7.64;68.93
64460;BME280;50828;53.756;21.140;2023-10-13T05:15:09;99830.84;;;7.60;69.11
64460;BME280;50828;53.756;21.140;2023-10-13T05:20:34;99831.15;;;7.61;69.01
64460;BME280;50828;53.756;21.140;2023-10-13T05:26:02;99838.01;;;7.60;68.79
64460;BME280;50828;53.756;21.140;2023-10-13T05:31:27;99833.76;;;7.56;68.76
64460;BME280;50828;53.756;21.140;2023-10-13T05:36:52;99842.16;;;7.56;69.03
64460;BME280;50828;53.756;21.140;2023-10-13T05:42:17;99844.15;;;7.54;68.78
64460;BME280;50828;53.756;21.140;2023-10-13T05:47:42;99849.22;;;7.54;69.14
64460;BME280;50828;53.756;21.140;2023-10-13T05:53:08;99853.87;;;7.52;69.12
64460;BME280;50828;53.756;21.140;2023-10-13T05:58:44;99866.93;;;7.54;69.32
64460;BME280;50828;53.756;21.140;2023-10-13T06:04:10;99857.84;;;7.59;69.29
64460;BME280;50828;53.756;21.140;2023-10-13T06:09:35;99858.98;;;7.68;69.19
64460;BME280;50828;53.756;21.140;2023-10-13T06:15:00;99860.89;;;7.74;69.32
64460;BME280;50828;53.756;21.140;2023-10-13T06:20:25;99862.55;;;7.81;69.47
64460;BME280;50828;53.756;21.140;2023-10-13T06:25:55;99868.73;;;7.91;69.69
64460;BME280;50828;53.756;21.140;2023-10-13T06:31:23;99861.89;;;8.01;69.53
64460;BME280;50828;53.756;21.140;2023-10-13T06:36:33;99856.86;;;8.15;69.60
64460;BME280;50828;53.756;21.140;2023-10-13T06:41:41;99862.98;;;8.31;69.64
64460;BME280;50828;53.756;21.140;2023-10-13T06:46:49;99865.48;;;8.46;69.88
64460;BME280;50828;53.756;21.140;2023-10-13T06:51:58;99871.47;;;8.60;69.73
64460;BME280;50828;53.756;21.140;2023-10-13T06:57:07;99870.46;;;8.74;69.77
64460;BME280;50828;53.756;21.140;2023-10-13T07:02:20;99874.52;;;8.82;69.72
64460;BME280;50828;53.756;21.140;2023-10-13T07:07:33;99875.27;;;8.91;69.51
64460;BME280;50828;53.756;21.140;2023-10-13T07:12:42;99876.98;;;8.97;69.85
64460;BME280;50828;53.756;21.140;2023-10-13T07:17:50;99877.13;;;9.03;69.51
64460;BME280;50828;53.756;21.140;2023-10-13T07:23:02;99876.48;;;9.10;69.62
64460;BME280;50828;53.756;21.140;2023-10-13T07:28:12;99878.55;;;9.16;69.41
64460;BME280;50828;53.756;21.140;2023-10-13T07:33:21;99881.61;;;9.23;69.83
64460;BME280;50828;53.756;21.140;2023-10-13T07:38:30;99889.53;;;9.32;69.99
64460;BME280;50828;53.756;21.140;2023-10-13T07:43:44;99880.39;;;9.42;70.02
64460;BME280;50828;53.756;21.140;2023-10-13T07:48:53;99882.77;;;9.52;70.12
64460;BME280;50828;53.756;21.140;2023-10-13T07:54:00;99886.92;;;9.63;70.04
64460;BME280;50828;53.756;21.140;2023-10-13T07:59:13;99890.75;;;9.77;70.20
64460;BME280;50828;53.756;21.140;2023-10-13T08:04:22;99886.20;;;9.90;70.21
64460;BME280;50828;53.756;21.140;2023-10-13T08:09:34;99885.56;;;10.05;69.92
64460;BME280;50828;53.756;21.140;2023-10-13T08:14:44;99886.24;;;10.19;70.28
64460;BME280;50828;53.756;21.140;2023-10-13T08:19:52;99886.85;;;10.34;70.39
64460;BME280;50828;53.756;21.140;2023-10-13T08:25:01;99883.19;;;10.50;69.93
64460;BME280;50828;53.756;21.140;2023-10-13T08:30:26;99889.06;;;10.68;70.19
64460;BME280;50828;53.756;21.140;2023-10-13T08:35:35;99880.43;;;10.88;70.26
64460;BME280;50828;53.756;21.140;2023-10-13T08:41:01;99882.02;;;11.08;69.84
64460;BME280;50828;53.756;21.140;2023-10-13T08:46:26;99885.48;;;11.24;69.70
64460;BME280;50828;53.756;21.140;2023-10-13T08:51:37;99891.23;;;11.41;69.16
64460;BME280;50828;53.756;21.140;2023-10-13T08:56:51;99886.80;;;11.56;69.13
64460;BME280;50828;53.756;21.140;2023-10-13T09:02:02;99875.95;;;11.73;68.78
64460;BME280;50828;53.756;21.140;2023-10-13T09:07:23;99870.09;;;11.88;68.73
64460;BME280;50828;53.756;21.140;2023-10-13T09:12:32;99868.80;;;12.01;68.49
64460;BME280;50828;53.756;21.140;2023-10-13T09:17:47;99865.30;;;12.14;67.94
64460;BME280;50828;53.756;21.140;2023-10-13T09:22:58;99857.91;;;12.28;67.74
64460;BME280;50828;53.756;21.140;2023-10-13T09:28:15;99848.76;;;12.41;67.07
64460;BME280;50828;53.756;21.140;2023-10-13T09:33:26;99845.31;;;12.49;66.38
64460;BME280;50828;53.756;21.140;2023-10-13T09:38:39;99840.89;;;12.59;65.91
64460;BME280;50828;53.756;21.140;2023-10-13T09:43:46;99840.37;;;12.69;65.52
64460;BME280;50828;53.756;21.140;2023-10-13T09:49:03;99838.02;;;12.77;64.99
64460;BME280;50828;53.756;21.140;2023-10-13T09:54:20;99833.17;;;12.85;64.27
64460;BME280;50828;53.756;21.140;2023-10-13T09:59:44;99828.70;;;12.92;63.72
64460;BME280;50828;53.756;21.140;2023-10-13T10:04:58;99817.84;;;12.97;63.16
64460;BME280;50828;53.756;21.140;2023-10-13T10:10:23;99808.29;;;13.04;62.78
64460;BME280;50828;53.756;21.140;2023-10-13T10:15:36;99806.70;;;13.13;62.75
64460;BME280;50828;53.756;21.140;2023-10-13T10:20:50;99798.67;;;13.21;62.34
64460;BME280;50828;53.756;21.140;2023-10-13T10:26:11;99798.52;;;13.33;62.51
64460;BME280;50828;53.756;21.140;2023-10-13T10:31:21;99780.08;;;13.47;62.06
64460;BME280;50828;53.756;21.140;2023-10-13T10:36:41;99777.60;;;13.59;61.82
64460;BME280;50828;53.756;21.140;2023-10-13T10:41:52;99775.67;;;13.68;61.38
64460;BME280;50828;53.756;21.140;2023-10-13T10:47:15;99769.36;;;13.76;61.34
64460;BME280;50828;53.756;21.140;2023-10-13T10:52:39;99766.70;;;13.85;61.04
64460;BME280;50828;53.756;21.140;2023-10-13T10:57:48;99752.20;;;13.97;61.01
64460;BME280;50828;53.756;21.140;2023-10-13T11:03:08;99734.98;;;14.07;60.60
64460;BME280;50828;53.756;21.140;2023-10-13T11:08:27;99731.42;;;14.16;60.47
64460;BME280;50828;53.756;21.140;2023-10-13T11:13:44;99728.27;;;14.24;59.72
64460;BME280;50828;53.756;21.140;2023-10-13T11:19:04;99721.85;;;14.27;59.46
64460;BME280;50828;53.756;21.140;2023-10-13T11:24:12;99711.63;;;14.32;59.25
64460;BME280;50828;53.756;21.140;2023-10-13T11:29:30;99693.92;;;14.35;58.86
64460;BME280;50828;53.756;21.140;2023-10-13T11:34:40;99685.92;;;14.39;58.86
64460;BME280;50828;53.756;21.140;2023-10-13T11:39:48;99686.39;;;14.45;58.86
64460;BME280;50828;53.756;21.140;2023-10-13T11:44:59;99680.29;;;14.52;58.73
64460;BME280;50828;53.756;21.140;2023-10-13T11:50:29;99661.52;;;14.60;58.78
64460;BME280;50828;53.756;21.140;2023-10-13T11:55:40;99660.36;;;14.73;58.85
64460;BME280;50828;53.756;21.140;2023-10-13T12:00:49;99648.59;;;14.80;58.27
64460;BME280;50828;53.756;21.140;2023-10-13T12:06:16;99647.14;;;14.86;57.99
64460;BME280;50828;53.756;21.140;2023-10-13T12:11:39;99647.29;;;14.89;57.40
64460;BME280;50828;53.756;21.140;2023-10-13T12:16:48;99633.94;;;14.87;57.65
64460;BME280;50828;53.756;21.140;2023-10-13T12:21:57;99624.33;;;14.88;57.51
64460;BME280;50828;53.756;21.140;2023-10-13T12:27:11;99617.95;;;14.88;57.15
64460;BME280;50828;53.756;21.140;2023-10-13T12:32:29;99612.54;;;14.89;57.15
64460;BME280;50828;53.756;21.140;2023-10-13T12:37:38;99606.98;;;14.87;57.20
64460;BME280;50828;53.756;21.140;2023-10-13T12:42:56;99605.38;;;14.85;57.68
64460;BME280;50828;53.756;21.140;2023-10-13T12:48:22;99596.78;;;14.83;58.20
64460;BME280;50828;53.756;21.140;2023-10-13T12:53:47;99586.77;;;14.82;58.40
64460;BME280;50828;53.756;21.140;2023-10-13T12:58:55;99582.10;;;14.82;58.48
64460;BME280;50828;53.756;21.140;2023-10-13T13:04:04;99578.62;;;14.84;58.67
64460;BME280;50828;53.756;21.140;2023-10-13T13:09:18;99564.05;;;14.82;58.60
64460;BME280;50828;53.756;21.140;2023-10-13T13:14:32;99559.09;;;14.82;59.12
64460;BME280;50828;53.756;21.140;2023-10-13T13:19:40;99556.89;;;14.80;59.11
64460;BME280;50828;53.756;21.140;2023-10-13T13:24:48;99545.38;;;14.80;59.20
64460;BME280;50828;53.756;21.140;2023-10-13T13:29:55;99530.10;;;14.79;59.29
64460;BME280;50828;53.756;21.140;2023-10-13T13:35:04;99523.34;;;14.76;59.72
64460;BME280;50828;53.756;21.140;2023-10-13T13:40:16;99518.32;;;14.74;60.06
64460;BME280;50828;53.756;21.140;2023-10-13T13:45:28;99514.54;;;14.70;60.28
64460;BME280;50828;53.756;21.140;2023-10-13T13:50:39;99500.55;;;14.64;61.08
64460;BME280;50828;53.756;21.140;2023-10-13T13:55:48;99490.07;;;14.59;61.04
64460;BME280;50828;53.756;21.140;2023-10-13T14:01:03;99474.96;;;14.54;61.11
64460;BME280;50828;53.756;21.140;2023-10-13T14:06:34;99465.69;;;14.50;61.61
64460;BME280;50828;53.756;21.140;2023-10-13T14:11:43;99468.27;;;14.46;61.92
64460;BME280;50828;53.756;21.140;2023-10-13T14:17:08;99453.84;;;14.41;62.29
64460;BME280;50828;53.756;21.140;2023-10-13T14:22:17;99447.06;;;14.40;61.99
64460;BME280;50828;53.756;21.140;2023-10-13T14:27:32;99439.95;;;14.35;62.59
64460;BME280;50828;53.756;21.140;2023-10-13T14:32:40;99429.10;;;14.33;62.62
64460;BME280;50828;53.756;21.140;2023-10-13T14:37:48;99417.86;;;14.28;62.57
64460;BME280;50828;53.756;21.140;2023-10-13T14:42:55;99408.91;;;14.27;62.74
64460;BME280;50828;53.756;21.140;2023-10-13T14:48:02;99397.30;;;14.29;62.92
64460;BME280;50828;53.756;21.140;2023-10-13T14:53:13;99393.57;;;14.32;63.17
64460;BME280;50828;53.756;21.140;2023-10-13T14:58:25;99393.53;;;14.35;63.18
64460;BME280;50828;53.756;21.140;2023-10-13T15:03:33;99383.71;;;14.36;63.77
64460;BME280;50828;53.756;21.140;2023-10-13T15:08:44;99378.52;;;14.37;63.73
64460;BME280;50828;53.756;21.140;2023-10-13T15:13:51;99369.66;;;14.37;64.22
64460;BME280;50828;53.756;21.140;2023-10-13T15:18:59;99353.91;;;14.37;64.28
64460;BME280;50828;53.756;21.140;2023-10-13T15:24:10;99342.77;;;14.36;64.15
64460;BME280;50828;53.756;21.140;2023-10-13T15:29:23;99337.91;;;14.35;64.43
64460;BME280;50828;53.756;21.140;2023-10-13T15:34:32;99339.93;;;14.34;64.86
64460;BME280;50828;53.756;21.140;2023-10-13T15:39:39;99329.40;;;14.33;64.85
64460;BME280;50828;53.756;21.140;2023-10-13T15:44:47;99314.48;;;14.30;64.95
64460;BME280;50828;53.756;21.140;2023-10-13T15:49:55;99304.05;;;14.30;65.51
64460;BME280;50828;53.756;21.140;2023-10-13T15:55:03;99297.61;;;14.31;65.68
64460;BME280;50828;53.756;21.140;2023-10-13T16:00:14;99290.51;;;14.31;65.70
64460;BME280;50828;53.756;21.140;2023-10-13T16:05:34;99282.92;;;14.31;65.61
64460;BME280;50828;53.756;21.140;2023-10-13T16:10:43;99269.64;;;14.28;65.94
64460;BME280;50828;53.756;21.140;2023-10-13T16:15:51;99261.02;;;14.27;66.14
64460;BME280;50828;53.756;21.140;2023-10-13T16:20:58;99240.48;;;14.25;66.50
64460;BME280;50828;53.756;21.140;2023-10-13T16:26:05;99224.52;;;14.23;66.63
64460;BME280;50828;53.756;21.140;2023-10-13T16:31:14;99217.38;;;14.21;66.95
64460;BME280;50828;53.756;21.140;2023-10-13T16:36:22;99214.10;;;14.20;67.06
64460;BME280;50828;53.756;21.140;2023-10-13T16:41:29;99212.89;;;14.22;67.28
64460;BME280;50828;53.756;21.140;2023-10-13T16:46:36;99212.15;;;14.22;67.16
64460;BME280;50828;53.756;21.140;2023-10-13T16:51:46;99208.75;;;14.25;67.38
64460;BME280;50828;53.756;21.140;2023-10-13T16:56:55;99186.49;;;14.27;67.50
64460;BME280;50828;53.756;21.140;2023-10-13T17:02:02;99173.09;;;14.29;67.65
64460;BME280;50828;53.756;21.140;2023-10-13T17:07:10;99167.38;;;14.32;68.02
64460;BME280;50828;53.756;21.140;2023-10-13T17:12:20;99166.40;;;14.36;67.87
64460;BME280;50828;53.756;21.140;2023-10-13T17:17:28;99152.30;;;14.42;68.29
64460;BME280;50828;53.756;21.140;2023-10-13T17:22:35;99146.64;;;14.47;68.39
64460;BME280;50828;53.756;21.140;2023-10-13T17:27:43;99138.98;;;14.53;68.47
64460;BME280;50828;53.756;21.140;2023-10-13T17:32:51;99136.27;;;14.56;68.63
64460;BME280;50828;53.756;21.140;2023-10-13T17:38:00;99139.25;;;14.62;68.32
64460;BME280;50828;53.756;21.140;2023-10-13T17:43:08;99124.34;;;14.67;68.79
64460;BME280;50828;53.756;21.140;2023-10-13T17:48:17;99102.64;;;14.71;69.01
64460;BME280;50828;53.756;21.140;2023-10-13T17:53:25;99096.52;;;14.72;68.77
64460;BME280;50828;53.756;21.140;2023-10-13T17:58:42;99084.39;;;14.73;68.80
64460;BME280;50828;53.756;21.140;2023-10-13T18:03:51;99061.14;;;14.71;69.16
64460;BME280;50828;53.756;21.140;2023-10-13T18:08:59;99076.38;;;14.74;69.46
64460;BME280;50828;53.756;21.140;2023-10-13T18:14:08;99074.64;;;14.73;69.49
64460;BME280;50828;53.756;21.140;2023-10-13T18:19:17;99060.44;;;14.74;69.43
64460;BME280;50828;53.756;21.140;2023-10-13T18:24:27;99052.69;;;14.75;69.80
64460;BME280;50828;53.756;21.140;2023-10-13T18:29:34;99038.50;;;14.78;70.08
64460;BME280;50828;53.756;21.140;2023-10-13T18:34:44;99034.31;;;14.82;69.92
64460;BME280;50828;53.756;21.140;2023-10-13T18:39:53;99023.58;;;14.85;70.34
64460;BME280;50828;53.756;21.140;2023-10-13T18:45:01;99029.12;;;14.90;70.17
64460;BME280;50828;53.756;21.140;2023-10-13T18:50:10;99018.15;;;14.94;70.47
64460;BME280;50828;53.756;21.140;2023-10-13T18:55:22;98998.98;;;14.99;70.39
64460;BME280;50828;53.756;21.140;2023-10-13T19:00:33;98983.87;;;15.02;70.49
64460;BME280;50828;53.756;21.140;2023-10-13T19:05:40;98981.80;;;15.06;70.95
64460;BME280;50828;53.756;21.140;2023-10-13T19:10:50;98972.11;;;15.10;70.87
64460;BME280;50828;53.756;21.140;2023-10-13T19:15:58;98969.89;;;15.15;70.85
64460;BME280;50828;53.756;21.140;2023-10-13T19:21:08;98969.38;;;15.19;71.03
64460;BME280;50828;53.756;21.140;2023-10-13T19:26:22;98963.01;;;15.24;71.26
64460;BME280;50828;53.756;21.140;2023-10-13T19:31:31;98960.02;;;15.31;71.25
64460;BME280;50828;53.756;21.140;2023-10-13T19:36:40;98948.84;;;15.35;71.28
64460;BME280;50828;53.756;21.140;2023-10-13T19:41:49;98945.20;;;15.39;71.18
64460;BME280;50828;53.756;21.140;2023-10-13T19:46:56;98945.94;;;15.45;71.17
64460;BME280;50828;53.756;21.140;2023-10-13T19:52:06;98941.85;;;15.52;71.11
64460;BME280;50828;53.756;21.140;2023-10-13T19:57:14;98937.30;;;15.58;71.24
64460;BME280;50828;53.756;21.140;2023-10-13T20:02:21;98929.59;;;15.63;71.29
64460;BME280;50828;53.756;21.140;2023-10-13T20:07:30;98924.17;;;15.67;71.24
64460;BME280;50828;53.756;21.140;2023-10-13T20:12:37;98924.08;;;15.75;71.29
64460;BME280;50828;53.756;21.140;2023-10-13T20:17:48;98916.92;;;15.80;71.37
64460;BME280;50828;53.756;21.140;2023-10-13T20:22:58;98918.58;;;15.88;71.28
64460;BME280;50828;53.756;21.140;2023-10-13T20:28:07;98926.05;;;15.97;71.23
64460;BME280;50828;53.756;21.140;2023-10-13T20:33:15;98917.01;;;16.03;71.10
64460;BME280;50828;53.756;21.140;2023-10-13T20:38:27;98909.42;;;16.11;71.29
64460;BME280;50828;53.756;21.140;2023-10-13T20:43:35;98907.16;;;16.17;71.03
64460;BME280;50828;53.756;21.140;2023-10-13T20:48:44;98905.23;;;16.21;70.86
64460;BME280;50828;53.756;21.140;2023-10-13T20:53:53;98894.52;;;16.26;70.99
64460;BME280;50828;53.756;21.140;2023-10-13T20:59:00;98889.41;;;16.30;70.71
64460;BME280;50828;53.756;21.140;2023-10-13T21:04:08;98879.58;;;16.33;70.87
64460;BME280;50828;53.756;21.140;2023-10-13T21:09:18;98871.23;;;16.35;70.85
64460;BME280;50828;53.756;21.140;2023-10-13T21:14:27;98860.52;;;16.32;70.67
64460;BME280;50828;53.756;21.140;2023-10-13T21:19:35;98868.02;;;16.40;70.54
64460;BME280;50828;53.756;21.140;2023-10-13T21:24:45;98852.56;;;16.46;70.53
64460;BME280;50828;53.756;21.140;2023-10-13T21:29:55;98842.86;;;16.51;70.54
64460;BME280;50828;53.756;21.140;2023-10-13T21:35:05;98835.54;;;16.54;70.46
64460;BME280;50828;53.756;21.140;2023-10-13T21:40:14;98833.16;;;16.57;70.37
64460;BME280;50828;53.756;21.140;2023-10-13T21:45:25;98834.93;;;16.63;70.04
64460;BME280;50828;53.756;21.140;2023-10-13T21:50:34;98833.39;;;16.66;70.25
64460;BME280;50828;53.756;21.140;2023-10-13T21:55:41;98834.34;;;16.70;70.07
64460;BME280;50828;53.756;21.140;2023-10-13T22:00:49;98838.08;;;16.76;69.87
64460;BME280;50828;53.756;21.140;2023-10-13T22:06:05;98836.56;;;16.84;69.73
64460;BME280;50828;53.756;21.140;2023-10-13T22:11:18;98830.46;;;16.93;69.60
64460;BME280;50828;53.756;21.140;2023-10-13T22:16:26;98829.71;;;16.99;69.39
64460;BME280;50828;53.756;21.140;2023-10-13T22:21:34;98824.70;;;17.06;69.21
64460;BME280;50828;53.756;21.140;2023-10-13T22:26:43;98814.67;;;17.09;69.13
64460;BME280;50828;53.756;21.140;2023-10-13T22:31:51;98801.26;;;17.13;68.82
64460;BME280;50828;53.756;21.140;2023-10-13T22:36:58;98792.88;;;17.18;68.75
64460;BME280;50828;53.756;21.140;2023-10-13T22:42:10;98784.41;;;17.21;68.51
64460;BME280;50828;53.756;21.140;2023-10-13T22:47:18;98783.57;;;17.24;68.69
64460;BME280;50828;53.756;21.140;2023-10-13T22:52:27;98779.39;;;17.32;68.36
64460;BME280;50828;53.756;21.140;2023-10-13T22:57:34;98776.09;;;17.36;68.15
64460;BME280;50828;53.756;21.140;2023-10-13T23:02:43;98769.02;;;17.40;68.13
64460;BME280;50828;53.756;21.140;2023-10-13T23:07:54;98764.79;;;17.43;67.86
64460;BME280;50828;53.756;21.140;2023-10-13T23:13:10;98759.91;;;17.49;67.76
64460;BME280;50828;53.756;21.140;2023-10-13T23:18:18;98754.91;;;17.53;67.77
64460;BME280;50828;53.756;21.140;2023-10-13T23:23:27;98757.09;;;17.56;67.67
64460;BME280;50828;53.756;21.140;2023-10-13T23:28:35;98760.54;;;17.61;67.56
64460;BME280;50828;53.756;21.140;2023-10-13T23:33:43;98756.52;;;17.63;67.35
64460;BME280;50828;53.756;21.140;2023-10-13T23:38:50;98748.36;;;17.64;67.29
64460;BME280;50828;53.756;21.140;2023-10-13T23:44:01;98743.33;;;17.64;67.11
64460;BME280;50828;53.756;21.140;2023-10-13T23:49:19;98748.70;;;17.64;67.05
64460;BME280;50828;53.756;21.140;2023-10-13T23:54:27;98740.65;;;17.64;67.13
64460;BME280;50828;53.756;21.140;2023-10-13T23:59:36;98735.80;;;17.67;67.08
